sensor_id;sensor_type;location;lat;lon;timestamp;pressure;altitude;pressure_sealevel;temperature;humidity
13029;BME280;6581;42.662;23.402;2023-04-22T00:00:15;95030.66;;;9.63;92.14
13029;BME280;6581;42.662;23.402;2023-04-22T00:02:42;95028.72;;;9.60;91.85
13029;BME280;6581;42.662;23.402;2023-04-22T00:05:10;95034.44;;;9.62;91.86
13029;BME280;6581;42.662;23.402;2023-04-22T00:07:39;95029.19;;;9.65;91.52
13029;BME280;6581;42.662;23.402;2023-04-22T00:10:08;95029.16;;;9.62;91.66
13029;BME280;6581;42.662;23.402;2023-04-22T00:12:36;95027.78;;;9.71;90.28
13029;BME280;6581;42.662;23.402;2023-04-22T00:15:04;95032.97;;;9.68;90.05
13029;BME280;6581;42.662;23.402;2023-04-22T00:17:32;95027.00;;;9.71;89.63
13029;BME280;6581;42.662;23.402;2023-04-22T00:19:59;95020.13;;;9.66;89.27
13029;BME280;6581;42.662;23.402;2023-04-22T00:22:27;95021.84;;;9.55;90.07
13029;BME280;6581;42.662;23.402;2023-04-22T00:24:55;95018.09;;;9.56;90.80
13029;BME280;6581;42.662;23.402;2023-04-22T00:27:22;95022.94;;;9.51;90.57
13029;BME280;6581;42.662;23.402;2023-04-22T00:29:49;95022.16;;;9.50;90.26
13029;BME280;6581;42.662;23.402;2023-04-22T00:32:16;95026.69;;;9.50;90.52
13029;BME280;6581;42.662;23.402;2023-04-22T00:34:43;95028.16;;;9.47;90.72
13029;BME280;6581;42.662;23.402;2023-04-22T00:37:10;95023.38;;;9.56;91.05
13029;BME280;6581;42.662;23.402;2023-04-22T00:39:37;95019.97;;;9.29;92.01
13029;BME280;6581;42.662;23.402;2023-04-22T00:42:06;95028.44;;;9.39;91.67
13029;BME280;6581;42.662;23.402;2023-04-22T00:44:34;95035.16;;;9.36;91.64
13029;BME280;6581;42.662;23.402;2023-04-22T00:47:02;95042.63;;;9.30;92.89
13029;BME280;6581;42.662;23.402;2023-04-22T00:49:30;95045.69;;;9.32;93.88
13029;BME280;6581;42.662;23.402;2023-04-22T00:51:57;95039.63;;;9.32;93.18
13029;BME280;6581;42.662;23.402;2023-04-22T00:54:24;95043.72;;;9.03;94.11
13029;BME280;6581;42.662;23.402;2023-04-22T00:56:51;95047.28;;;8.92;95.62
13029;BME280;6581;42.662;23.402;2023-04-22T00:59:21;95040.38;;;8.83;96.42
13029;BME280;6581;42.662;23.402;2023-04-22T01:01:50;95044.75;;;8.76;97.79
13029;BME280;6581;42.662;23.402;2023-04-22T01:04:17;95045.22;;;8.81;98.50
13029;BME280;6581;42.662;23.402;2023-04-22T01:06:45;95048.28;;;8.83;99.50
13029;BME280;6581;42.662;23.402;2023-04-22T01:09:12;95048.97;;;8.80;100.00
13029;BME280;6581;42.662;23.402;2023-04-22T01:11:39;95049.75;;;8.81;100.00
13029;BME280;6581;42.662;23.402;2023-04-22T01:14:33;95049.34;;;8.79;100.00
13029;BME280;6581;42.662;23.402;2023-04-22T01:17:01;95040.84;;;8.89;100.00
13029;BME280;6581;42.662;23.402;2023-04-22T01:19:28;95042.78;;;8.92;100.00
13029;BME280;6581;42.662;23.402;2023-04-22T01:21:56;95042.00;;;8.92;100.00
13029;BME280;6581;42.662;23.402;2023-04-22T01:24:25;95040.84;;;8.89;100.00
13029;BME280;6581;42.662;23.402;2023-04-22T01:26:52;95044.06;;;8.79;100.00
13029;BME280;6581;42.662;23.402;2023-04-22T01:29:20;95044.41;;;8.77;100.00
13029;BME280;6581;42.662;23.402;2023-04-22T01:31:47;95039.13;;;8.77;100.00
13029;BME280;6581;42.662;23.402;2023-04-22T01:34:15;95039.75;;;8.71;100.00
13029;BME280;6581;42.662;23.402;2023-04-22T01:36:42;95040.28;;;8.80;100.00
13029;BME280;6581;42.662;23.402;2023-04-22T01:39:10;95041.78;;;8.58;100.00
13029;BME280;6581;42.662;23.402;2023-04-22T01:41:39;95043.41;;;8.43;100.00
13029;BME280;6581;42.662;23.402;2023-04-22T01:44:07;95038.75;;;8.56;100.00
13029;BME280;6581;42.662;23.402;2023-04-22T01:46:34;95039.59;;;8.60;100.00
13029;BME280;6581;42.662;23.402;2023-04-22T01:49:01;95035.53;;;8.66;100.00
13029;BME280;6581;42.662;23.402;2023-04-22T01:51:29;95033.22;;;8.84;99.30
13029;BME280;6581;42.662;23.402;2023-04-22T01:53:57;95039.75;;;8.71;98.01
13029;BME280;6581;42.662;23.402;2023-04-22T01:56:25;95041.75;;;8.77;97.80
13029;BME280;6581;42.662;23.402;2023-04-22T01:58:53;95042.47;;;8.74;97.08
13029;BME280;6581;42.662;23.402;2023-04-22T02:01:20;95039.47;;;8.76;96.59
13029;BME280;6581;42.662;23.402;2023-04-22T02:03:47;95037.44;;;8.88;96.03
13029;BME280;6581;42.662;23.402;2023-04-22T02:06:14;95041.88;;;8.84;95.14
13029;BME280;6581;42.662;23.402;2023-04-22T02:08:41;95039.81;;;8.94;95.25
13029;BME280;6581;42.662;23.402;2023-04-22T02:11:08;95043.94;;;8.95;94.36
13029;BME280;6581;42.662;23.402;2023-04-22T02:13:36;95047.53;;;8.83;96.04
13029;BME280;6581;42.662;23.402;2023-04-22T02:16:06;95047.75;;;8.74;96.17
13029;BME280;6581;42.662;23.402;2023-04-22T02:18:34;95040.19;;;8.73;98.25
13029;BME280;6581;42.662;23.402;2023-04-22T02:21:01;95041.88;;;8.84;98.74
13029;BME280;6581;42.662;23.402;2023-04-22T02:23:28;95048.13;;;8.96;98.45
13029;BME280;6581;42.662;23.402;2023-04-22T02:25:55;95045.13;;;8.97;97.91
13029;BME280;6581;42.662;23.402;2023-04-22T02:28:22;95042.13;;;8.99;96.95
13029;BME280;6581;42.662;23.402;2023-04-22T02:30:50;95048.59;;;9.01;95.86
13029;BME280;6581;42.662;23.402;2023-04-22T02:33:44;95042.34;;;8.90;96.25
13029;BME280;6581;42.662;23.402;2023-04-22T02:36:11;95046.06;;;8.85;97.02
13029;BME280;6581;42.662;23.402;2023-04-22T02:38:38;95040.00;;;8.85;96.21
13029;BME280;6581;42.662;23.402;2023-04-22T02:41:06;95041.81;;;8.81;96.71
13029;BME280;6581;42.662;23.402;2023-04-22T02:43:35;95042.25;;;8.83;96.23
13029;BME280;6581;42.662;23.402;2023-04-22T02:46:02;95047.34;;;8.72;97.51
13029;BME280;6581;42.662;23.402;2023-04-22T02:48:29;95046.94;;;8.70;97.43
13029;BME280;6581;42.662;23.402;2023-04-22T02:50:57;95055.00;;;8.58;98.76
13029;BME280;6581;42.662;23.402;2023-04-22T02:53:25;95061.53;;;8.64;98.44
13029;BME280;6581;42.662;23.402;2023-04-22T02:55:52;95058.06;;;8.60;99.04
13029;BME280;6581;42.662;23.402;2023-04-22T02:58:20;95060.28;;;8.39;99.39
13029;BME280;6581;42.662;23.402;2023-04-22T03:00:47;95053.13;;;8.39;100.00
13029;BME280;6581;42.662;23.402;2023-04-22T03:03:14;95053.78;;;8.33;100.00
13029;BME280;6581;42.662;23.402;2023-04-22T03:05:41;95061.94;;;8.28;100.00
13029;BME280;6581;42.662;23.402;2023-04-22T03:08:10;95061.34;;;8.34;100.00
13029;BME280;6581;42.662;23.402;2023-04-22T03:10:37;95063.34;;;8.41;100.00
13029;BME280;6581;42.662;23.402;2023-04-22T03:13:05;95062.38;;;8.30;100.00
13029;BME280;6581;42.662;23.402;2023-04-22T03:15:32;95061.75;;;8.36;100.00
13029;BME280;6581;42.662;23.402;2023-04-22T03:17:59;95053.59;;;8.26;100.00
13029;BME280;6581;42.662;23.402;2023-04-22T03:20:27;95057.19;;;8.33;100.00
13029;BME280;6581;42.662;23.402;2023-04-22T03:22:54;95065.09;;;8.33;100.00
13029;BME280;6581;42.662;23.402;2023-04-22T03:25:23;95063.28;;;8.37;100.00
13029;BME280;6581;42.662;23.402;2023-04-22T03:27:53;95065.94;;;8.37;100.00
13029;BME280;6581;42.662;23.402;2023-04-22T03:30:20;95067.44;;;8.19;98.42
13029;BME280;6581;42.662;23.402;2023-04-22T03:32:47;95081.88;;;8.06;98.12
13029;BME280;6581;42.662;23.402;2023-04-22T03:35:21;95072.19;;;7.94;99.67
13029;BME280;6581;42.662;23.402;2023-04-22T03:37:50;95083.16;;;7.96;100.00
13029;BME280;6581;42.662;23.402;2023-04-22T03:40:24;95076.16;;;8.04;100.00
13029;BME280;6581;42.662;23.402;2023-04-22T03:42:52;95078.94;;;8.11;100.00
13029;BME280;6581;42.662;23.402;2023-04-22T03:45:20;95080.19;;;8.17;100.00
13029;BME280;6581;42.662;23.402;2023-04-22T03:48:00;95073.69;;;8.30;100.00
13029;BME280;6581;42.662;23.402;2023-04-22T03:50:35;95083.16;;;8.31;99.53
13029;BME280;6581;42.662;23.402;2023-04-22T03:53:02;95083.00;;;8.43;98.40
13029;BME280;6581;42.662;23.402;2023-04-22T03:55:31;95083.38;;;8.42;98.13
13029;BME280;6581;42.662;23.402;2023-04-22T03:58:00;95081.84;;;8.41;98.43
13029;BME280;6581;42.662;23.402;2023-04-22T04:00:28;95082.38;;;8.31;99.79
13029;BME280;6581;42.662;23.402;2023-04-22T04:03:06;95079.41;;;8.32;99.15
13029;BME280;6581;42.662;23.402;2023-04-22T04:05:33;95086.56;;;8.32;99.48
13029;BME280;6581;42.662;23.402;2023-04-22T04:08:02;95090.31;;;8.31;99.15
13029;BME280;6581;42.662;23.402;2023-04-22T04:10:30;95088.84;;;8.33;98.49
13029;BME280;6581;42.662;23.402;2023-04-22T04:12:59;95092.78;;;8.24;99.23
13029;BME280;6581;42.662;23.402;2023-04-22T04:15:29;95097.78;;;8.29;99.01
13029;BME280;6581;42.662;23.402;2023-04-22T04:17:58;95098.59;;;8.29;98.79
13029;BME280;6581;42.662;23.402;2023-04-22T04:20:27;95099.59;;;8.25;99.56
13029;BME280;6581;42.662;23.402;2023-04-22T04:22:55;95100.31;;;8.25;98.31
13029;BME280;6581;42.662;23.402;2023-04-22T04:25:22;95102.72;;;7.95;99.68
13029;BME280;6581;42.662;23.402;2023-04-22T04:27:51;95103.25;;;8.01;100.00
13029;BME280;6581;42.662;23.402;2023-04-22T04:30:18;95111.44;;;8.15;99.74
13029;BME280;6581;42.662;23.402;2023-04-22T04:32:51;95116.59;;;8.27;99.43
13029;BME280;6581;42.662;23.402;2023-04-22T04:35:19;95121.00;;;8.39;99.61
13029;BME280;6581;42.662;23.402;2023-04-22T04:37:50;95121.00;;;8.39;99.67
13029;BME280;6581;42.662;23.402;2023-04-22T04:40:18;95118.56;;;8.50;99.11
13029;BME280;6581;42.662;23.402;2023-04-22T04:42:53;95121.84;;;8.43;98.50
13029;BME280;6581;42.662;23.402;2023-04-22T04:45:26;95128.09;;;8.54;98.81
13029;BME280;6581;42.662;23.402;2023-04-22T04:47:56;95127.66;;;8.71;97.85
13029;BME280;6581;42.662;23.402;2023-04-22T04:50:31;95126.28;;;8.77;97.33
13029;BME280;6581;42.662;23.402;2023-04-22T04:53:00;95135.19;;;8.69;97.08
13029;BME280;6581;42.662;23.402;2023-04-22T04:55:34;95134.63;;;8.79;97.28
13029;BME280;6581;42.662;23.402;2023-04-22T04:58:08;95137.06;;;8.69;96.66
13029;BME280;6581;42.662;23.402;2023-04-22T05:00:35;95141.56;;;8.68;96.19
13029;BME280;6581;42.662;23.402;2023-04-22T05:03:02;95148.44;;;8.73;95.61
13029;BME280;6581;42.662;23.402;2023-04-22T05:05:29;95149.56;;;8.91;95.14
13029;BME280;6581;42.662;23.402;2023-04-22T05:07:56;95145.09;;;8.95;94.06
13029;BME280;6581;42.662;23.402;2023-04-22T05:10:24;95151.69;;;9.05;93.28
13029;BME280;6581;42.662;23.402;2023-04-22T05:12:52;95154.59;;;9.19;93.15
13029;BME280;6581;42.662;23.402;2023-04-22T05:15:24;95145.44;;;9.35;92.22
13029;BME280;6581;42.662;23.402;2023-04-22T05:17:51;95150.38;;;9.37;91.75
13029;BME280;6581;42.662;23.402;2023-04-22T05:20:18;95151.84;;;9.57;92.23
13029;BME280;6581;42.662;23.402;2023-04-22T05:22:46;95151.91;;;9.61;91.89
13029;BME280;6581;42.662;23.402;2023-04-22T05:25:13;95151.75;;;9.76;91.03
13029;BME280;6581;42.662;23.402;2023-04-22T05:27:50;95152.34;;;9.89;90.38
13029;BME280;6581;42.662;23.402;2023-04-22T05:30:18;95155.13;;;10.00;90.21
13029;BME280;6581;42.662;23.402;2023-04-22T05:32:46;95153.38;;;10.07;90.35
13029;BME280;6581;42.662;23.402;2023-04-22T05:35:14;95152.47;;;10.22;89.93
13029;BME280;6581;42.662;23.402;2023-04-22T05:37:41;95152.00;;;10.43;89.04
13029;BME280;6581;42.662;23.402;2023-04-22T05:40:10;95152.44;;;10.49;89.37
13029;BME280;6581;42.662;23.402;2023-04-22T05:42:37;95160.09;;;10.54;88.75
13029;BME280;6581;42.662;23.402;2023-04-22T05:45:05;95155.63;;;10.61;88.58
13029;BME280;6581;42.662;23.402;2023-04-22T05:47:32;95154.28;;;10.75;88.42
13029;BME280;6581;42.662;23.402;2023-04-22T05:50:26;95145.28;;;10.83;88.22
13029;BME280;6581;42.662;23.402;2023-04-22T05:53:03;95149.78;;;10.79;86.47
13029;BME280;6581;42.662;23.402;2023-04-22T05:55:30;95148.47;;;10.65;86.29
13029;BME280;6581;42.662;23.402;2023-04-22T05:57:58;95152.09;;;10.84;88.01
13029;BME280;6581;42.662;23.402;2023-04-22T06:00:43;95144.34;;;11.01;86.40
13029;BME280;6581;42.662;23.402;2023-04-22T06:03:27;95149.41;;;11.14;85.87
13029;BME280;6581;42.662;23.402;2023-04-22T06:05:56;95148.81;;;11.31;85.62
13029;BME280;6581;42.662;23.402;2023-04-22T06:08:25;95146.94;;;11.31;83.55
13029;BME280;6581;42.662;23.402;2023-04-22T06:10:52;95148.09;;;11.37;83.36
13029;BME280;6581;42.662;23.402;2023-04-22T06:13:20;95148.31;;;11.18;85.21
13029;BME280;6581;42.662;23.402;2023-04-22T06:15:47;95144.03;;;11.06;85.75
13029;BME280;6581;42.662;23.402;2023-04-22T06:18:15;95144.94;;;11.21;85.30
13029;BME280;6581;42.662;23.402;2023-04-22T06:20:42;95154.59;;;11.40;84.99
13029;BME280;6581;42.662;23.402;2023-04-22T06:23:10;95153.72;;;11.29;86.10
13029;BME280;6581;42.662;23.402;2023-04-22T06:25:37;95156.03;;;11.34;85.65
13029;BME280;6581;42.662;23.402;2023-04-22T06:28:04;95156.78;;;11.34;85.89
13029;BME280;6581;42.662;23.402;2023-04-22T06:30:34;95158.06;;;11.47;85.32
13029;BME280;6581;42.662;23.402;2023-04-22T06:33:01;95162.69;;;11.57;84.37
13029;BME280;6581;42.662;23.402;2023-04-22T06:35:28;95164.94;;;11.55;83.42
13029;BME280;6581;42.662;23.402;2023-04-22T06:37:55;95164.59;;;11.61;82.76
13029;BME280;6581;42.662;23.402;2023-04-22T06:40:28;95165.97;;;11.84;82.08
13029;BME280;6581;42.662;23.402;2023-04-22T06:43:06;95164.19;;;11.99;83.41
13029;BME280;6581;42.662;23.402;2023-04-22T06:45:39;95159.25;;;12.01;85.22
13029;BME280;6581;42.662;23.402;2023-04-22T06:48:18;95157.41;;;12.05;86.26
13029;BME280;6581;42.662;23.402;2023-04-22T06:51:05;95158.53;;;12.04;87.41
13029;BME280;6581;42.662;23.402;2023-04-22T06:53:32;95160.81;;;12.06;86.88
13029;BME280;6581;42.662;23.402;2023-04-22T06:56:25;95156.69;;;12.12;87.82
13029;BME280;6581;42.662;23.402;2023-04-22T06:58:52;95162.00;;;12.15;86.20
13029;BME280;6581;42.662;23.402;2023-04-22T07:01:44;95157.03;;;12.10;86.21
13029;BME280;6581;42.662;23.402;2023-04-22T07:04:15;95156.41;;;12.27;87.81
13029;BME280;6581;42.662;23.402;2023-04-22T07:06:42;95156.41;;;12.27;86.48
13029;BME280;6581;42.662;23.402;2023-04-22T07:09:09;95162.56;;;12.42;85.59
13029;BME280;6581;42.662;23.402;2023-04-22T07:11:39;95166.00;;;12.46;84.89
13029;BME280;6581;42.662;23.402;2023-04-22T07:14:27;95158.13;;;12.60;84.83
13029;BME280;6581;42.662;23.402;2023-04-22T07:16:54;95160.09;;;12.77;83.49
13029;BME280;6581;42.662;23.402;2023-04-22T07:19:21;95162.81;;;12.92;82.42
13029;BME280;6581;42.662;23.402;2023-04-22T07:21:48;95161.69;;;13.03;80.06
13029;BME280;6581;42.662;23.402;2023-04-22T07:24:15;95159.16;;;13.49;79.51
13029;BME280;6581;42.662;23.402;2023-04-22T07:26:44;95160.69;;;13.57;80.17
13029;BME280;6581;42.662;23.402;2023-04-22T07:29:11;95164.88;;;13.62;78.99
13029;BME280;6581;42.662;23.402;2023-04-22T07:31:38;95160.72;;;13.79;78.84
13029;BME280;6581;42.662;23.402;2023-04-22T07:34:05;95167.09;;;14.66;77.12
13029;BME280;6581;42.662;23.402;2023-04-22T07:36:33;95169.25;;;16.95;65.97
13029;BME280;6581;42.662;23.402;2023-04-22T07:39:01;95161.66;;;19.62;52.52
13029;BME280;6581;42.662;23.402;2023-04-22T07:41:28;95170.63;;;20.98;45.80
13029;BME280;6581;42.662;23.402;2023-04-22T07:43:58;95159.75;;;21.93;42.01
13029;BME280;6581;42.662;23.402;2023-04-22T07:46:25;95165.81;;;23.01;38.97
13029;BME280;6581;42.662;23.402;2023-04-22T07:48:52;95156.56;;;24.12;36.47
13029;BME280;6581;42.662;23.402;2023-04-22T07:51:19;95156.34;;;24.83;34.85
13029;BME280;6581;42.662;23.402;2023-04-22T07:53:47;95156.47;;;25.25;33.57
13029;BME280;6581;42.662;23.402;2023-04-22T07:56:14;95155.72;;;25.25;32.60
13029;BME280;6581;42.662;23.402;2023-04-22T07:58:41;95160.81;;;26.16;30.94
13029;BME280;6581;42.662;23.402;2023-04-22T08:01:09;95161.13;;;26.41;30.61
13029;BME280;6581;42.662;23.402;2023-04-22T08:03:36;95159.75;;;25.89;30.95
13029;BME280;6581;42.662;23.402;2023-04-22T08:06:04;95162.16;;;25.87;30.37
13029;BME280;6581;42.662;23.402;2023-04-22T08:08:31;95151.53;;;24.42;32.72
13029;BME280;6581;42.662;23.402;2023-04-22T08:10:58;95158.59;;;22.29;37.08
13029;BME280;6581;42.662;23.402;2023-04-22T08:13:25;95150.78;;;21.04;38.45
13029;BME280;6581;42.662;23.402;2023-04-22T08:15:52;95142.97;;;19.91;40.96
13029;BME280;6581;42.662;23.402;2023-04-22T08:18:21;95130.66;;;18.86;44.97
13029;BME280;6581;42.662;23.402;2023-04-22T08:20:49;95139.19;;;18.38;45.71
13029;BME280;6581;42.662;23.402;2023-04-22T08:23:16;95136.97;;;17.90;45.27
13029;BME280;6581;42.662;23.402;2023-04-22T08:25:43;95129.97;;;17.73;47.05
13029;BME280;6581;42.662;23.402;2023-04-22T08:28:10;95130.34;;;17.44;47.84
13029;BME280;6581;42.662;23.402;2023-04-22T08:30:37;95131.44;;;17.20;47.62
13029;BME280;6581;42.662;23.402;2023-04-22T08:33:04;95133.28;;;17.26;51.85
13029;BME280;6581;42.662;23.402;2023-04-22T08:35:34;95130.16;;;17.05;49.61
13029;BME280;6581;42.662;23.402;2023-04-22T08:38:02;95125.63;;;16.98;49.53
13029;BME280;6581;42.662;23.402;2023-04-22T08:40:29;95122.81;;;16.78;51.86
13029;BME280;6581;42.662;23.402;2023-04-22T08:42:56;95116.69;;;16.81;51.00
13029;BME280;6581;42.662;23.402;2023-04-22T08:45:48;95117.50;;;17.05;51.32
13029;BME280;6581;42.662;23.402;2023-04-22T08:48:16;95110.03;;;16.93;50.65
13029;BME280;6581;42.662;23.402;2023-04-22T08:50:46;95097.91;;;16.85;51.40
13029;BME280;6581;42.662;23.402;2023-04-22T08:53:14;95102.47;;;17.15;50.62
13029;BME280;6581;42.662;23.402;2023-04-22T08:55:43;95102.44;;;17.18;49.82
13029;BME280;6581;42.662;23.402;2023-04-22T08:58:11;95097.28;;;17.31;51.68
13029;BME280;6581;42.662;23.402;2023-04-22T09:00:41;95095.06;;;16.96;48.95
13029;BME280;6581;42.662;23.402;2023-04-22T09:03:09;95092.25;;;17.06;48.07
13029;BME280;6581;42.662;23.402;2023-04-22T09:05:36;95095.44;;;17.24;48.43
13029;BME280;6581;42.662;23.402;2023-04-22T09:08:06;95097.91;;;17.12;46.28
13029;BME280;6581;42.662;23.402;2023-04-22T09:10:35;95085.09;;;16.32;48.35
13029;BME280;6581;42.662;23.402;2023-04-22T09:13:03;95092.53;;;16.51;48.06
13029;BME280;6581;42.662;23.402;2023-04-22T09:15:30;95082.25;;;16.50;47.32
13029;BME280;6581;42.662;23.402;2023-04-22T09:17:57;95089.06;;;16.58;47.22
13029;BME280;6581;42.662;23.402;2023-04-22T09:20:26;95084.38;;;16.96;49.14
13029;BME280;6581;42.662;23.402;2023-04-22T09:22:55;95083.25;;;16.93;47.58
13029;BME280;6581;42.662;23.402;2023-04-22T09:25:26;95089.94;;;17.08;46.46
13029;BME280;6581;42.662;23.402;2023-04-22T09:27:54;95075.75;;;17.38;45.99
13029;BME280;6581;42.662;23.402;2023-04-22T09:30:23;95070.94;;;17.53;46.56
13029;BME280;6581;42.662;23.402;2023-04-22T09:32:51;95063.28;;;17.51;44.83
13029;BME280;6581;42.662;23.402;2023-04-22T09:35:25;95065.00;;;17.65;45.06
13029;BME280;6581;42.662;23.402;2023-04-22T09:37:54;95060.47;;;17.85;44.45
13029;BME280;6581;42.662;23.402;2023-04-22T09:40:21;95065.00;;;17.88;46.30
13029;BME280;6581;42.662;23.402;2023-04-22T09:42:51;95065.66;;;17.96;42.90
13029;BME280;6581;42.662;23.402;2023-04-22T09:45:27;95073.47;;;17.87;43.86
13029;BME280;6581;42.662;23.402;2023-04-22T09:47:55;95069.28;;;17.86;42.68
13029;BME280;6581;42.662;23.402;2023-04-22T09:50:24;95075.72;;;17.88;42.69
13029;BME280;6581;42.662;23.402;2023-04-22T09:52:53;95067.69;;;17.88;42.90
13029;BME280;6581;42.662;23.402;2023-04-22T09:55:22;95075.34;;;17.40;42.38
13029;BME280;6581;42.662;23.402;2023-04-22T09:57:52;95083.50;;;17.59;47.45
13029;BME280;6581;42.662;23.402;2023-04-22T10:00:20;95106.00;;;16.44;43.85
13029;BME280;6581;42.662;23.402;2023-04-22T10:02:48;95087.91;;;15.80;47.36
13029;BME280;6581;42.662;23.402;2023-04-22T10:05:16;95090.88;;;15.38;48.53
13029;BME280;6581;42.662;23.402;2023-04-22T10:07:44;95118.50;;;15.10;47.23
13029;BME280;6581;42.662;23.402;2023-04-22T10:10:11;95092.75;;;14.82;47.95
13029;BME280;6581;42.662;23.402;2023-04-22T10:12:39;95096.66;;;14.56;47.59
13029;BME280;6581;42.662;23.402;2023-04-22T10:15:08;95102.78;;;14.46;46.93
13029;BME280;6581;42.662;23.402;2023-04-22T10:17:37;95095.19;;;14.41;45.73
13029;BME280;6581;42.662;23.402;2023-04-22T10:20:08;95092.13;;;14.50;45.88
13029;BME280;6581;42.662;23.402;2023-04-22T10:22:40;95074.53;;;14.67;46.48
13029;BME280;6581;42.662;23.402;2023-04-22T10:25:32;95078.53;;;15.06;45.94
13029;BME280;6581;42.662;23.402;2023-04-22T10:28:01;95082.22;;;15.23;45.02
13029;BME280;6581;42.662;23.402;2023-04-22T10:30:31;95066.56;;;15.29;45.95
13029;BME280;6581;42.662;23.402;2023-04-22T10:36:07;95066.31;;;15.05;49.72
13029;BME280;6581;42.662;23.402;2023-04-22T10:38:35;95063.69;;;15.02;50.27
13029;BME280;6581;42.662;23.402;2023-04-22T10:41:03;95065.94;;;15.03;49.28
13029;BME280;6581;42.662;23.402;2023-04-22T10:43:40;95051.28;;;15.33;46.66
13029;BME280;6581;42.662;23.402;2023-04-22T10:49:18;95048.03;;;16.00;43.21
13029;BME280;6581;42.662;23.402;2023-04-22T10:51:47;95036.53;;;16.07;43.88
13029;BME280;6581;42.662;23.402;2023-04-22T10:57:18;95045.09;;;16.25;42.48
13029;BME280;6581;42.662;23.402;2023-04-22T10:59:48;95044.63;;;16.33;38.56
13029;BME280;6581;42.662;23.402;2023-04-22T11:02:19;95054.81;;;16.42;38.26
13029;BME280;6581;42.662;23.402;2023-04-22T11:04:47;95039.28;;;16.33;39.67
13029;BME280;6581;42.662;23.402;2023-04-22T11:07:28;95048.81;;;16.34;37.47
13029;BME280;6581;42.662;23.402;2023-04-22T11:09:59;95046.53;;;16.33;37.98
13029;BME280;6581;42.662;23.402;2023-04-22T11:12:43;95058.03;;;16.30;42.32
13029;BME280;6581;42.662;23.402;2023-04-22T11:15:12;95055.47;;;16.19;41.60
13029;BME280;6581;42.662;23.402;2023-04-22T11:17:43;95072.66;;;15.77;41.13
13029;BME280;6581;42.662;23.402;2023-04-22T11:20:12;95070.88;;;15.67;44.83
13029;BME280;6581;42.662;23.402;2023-04-22T11:22:45;95067.56;;;15.52;43.32
13029;BME280;6581;42.662;23.402;2023-04-22T11:25:13;95067.44;;;15.67;43.96
13029;BME280;6581;42.662;23.402;2023-04-22T11:28:05;95069.34;;;15.66;44.43
13029;BME280;6581;42.662;23.402;2023-04-22T11:30:33;95070.53;;;15.62;44.09
13029;BME280;6581;42.662;23.402;2023-04-22T11:33:01;95083.41;;;15.70;44.86
13029;BME280;6581;42.662;23.402;2023-04-22T11:35:30;95081.09;;;15.72;42.26
13029;BME280;6581;42.662;23.402;2023-04-22T11:37:58;95073.06;;;15.76;45.76
13029;BME280;6581;42.662;23.402;2023-04-22T11:40:28;95075.03;;;15.72;48.04
13029;BME280;6581;42.662;23.402;2023-04-22T11:42:55;95074.78;;;15.52;49.10
13029;BME280;6581;42.662;23.402;2023-04-22T11:45:23;95083.78;;;15.72;47.99
13029;BME280;6581;42.662;23.402;2023-04-22T11:47:51;95070.66;;;15.88;48.19
13029;BME280;6581;42.662;23.402;2023-04-22T11:50:22;95095.50;;;15.85;44.27
13029;BME280;6581;42.662;23.402;2023-04-22T11:53:15;95087.81;;;15.91;44.53
13029;BME280;6581;42.662;23.402;2023-04-22T11:55:43;95086.75;;;15.81;44.41
13029;BME280;6581;42.662;23.402;2023-04-22T11:58:13;95094.22;;;16.01;46.39
13029;BME280;6581;42.662;23.402;2023-04-22T12:00:41;95089.88;;;16.14;45.42
13029;BME280;6581;42.662;23.402;2023-04-22T12:03:13;95109.59;;;15.89;44.44
13029;BME280;6581;42.662;23.402;2023-04-22T12:05:43;95097.50;;;15.74;46.25
13029;BME280;6581;42.662;23.402;2023-04-22T12:08:13;95110.19;;;15.60;46.46
13029;BME280;6581;42.662;23.402;2023-04-22T12:10:42;95091.50;;;15.60;46.70
13029;BME280;6581;42.662;23.402;2023-04-22T12:13:16;95094.13;;;15.67;47.03
13029;BME280;6581;42.662;23.402;2023-04-22T12:15:44;95091.69;;;15.83;49.97
13029;BME280;6581;42.662;23.402;2023-04-22T12:18:12;95087.25;;;15.69;49.83
13029;BME280;6581;42.662;23.402;2023-04-22T12:20:39;95095.97;;;15.73;49.67
13029;BME280;6581;42.662;23.402;2023-04-22T12:23:14;95099.31;;;15.84;51.89
13029;BME280;6581;42.662;23.402;2023-04-22T12:25:42;95095.50;;;15.85;47.07
13029;BME280;6581;42.662;23.402;2023-04-22T12:28:36;95093.84;;;15.99;50.60
13029;BME280;6581;42.662;23.402;2023-04-22T12:31:03;95096.53;;;15.95;46.23
13029;BME280;6581;42.662;23.402;2023-04-22T12:33:31;95082.38;;;16.02;46.42
13029;BME280;6581;42.662;23.402;2023-04-22T12:35:58;95088.88;;;16.01;48.96
13029;BME280;6581;42.662;23.402;2023-04-22T12:38:27;95096.09;;;16.04;49.81
13029;BME280;6581;42.662;23.402;2023-04-22T12:40:54;95100.56;;;16.14;53.45
13029;BME280;6581;42.662;23.402;2023-04-22T12:43:21;95098.19;;;15.82;48.98
13029;BME280;6581;42.662;23.402;2023-04-22T12:45:49;95098.28;;;15.71;51.49
13029;BME280;6581;42.662;23.402;2023-04-22T12:48:16;95101.91;;;15.40;48.88
13029;BME280;6581;42.662;23.402;2023-04-22T12:50:43;95108.56;;;15.14;53.33
13029;BME280;6581;42.662;23.402;2023-04-22T12:53:10;95090.28;;;15.16;55.13
13029;BME280;6581;42.662;23.402;2023-04-22T12:55:39;95089.75;;;15.35;56.26
13029;BME280;6581;42.662;23.402;2023-04-22T12:58:31;95087.50;;;15.34;56.99
13029;BME280;6581;42.662;23.402;2023-04-22T13:00:58;95079.50;;;15.30;57.42
13029;BME280;6581;42.662;23.402;2023-04-22T13:03:25;95079.06;;;15.39;56.30
13029;BME280;6581;42.662;23.402;2023-04-22T13:05:52;95084.75;;;15.41;57.16
13029;BME280;6581;42.662;23.402;2023-04-22T13:08:19;95080.88;;;15.49;54.81
13029;BME280;6581;42.662;23.402;2023-04-22T13:10:48;95089.31;;;15.44;53.99
13029;BME280;6581;42.662;23.402;2023-04-22T13:13:15;95080.44;;;15.61;56.77
13029;BME280;6581;42.662;23.402;2023-04-22T13:15:42;95079.09;;;15.83;54.91
13029;BME280;6581;42.662;23.402;2023-04-22T13:18:09;95077.41;;;16.00;58.93
13029;BME280;6581;42.662;23.402;2023-04-22T13:20:36;95070.88;;;16.08;54.17
13029;BME280;6581;42.662;23.402;2023-04-22T13:23:03;95072.03;;;16.41;52.91